sensor_id;sensor_type;location;lat;lon;timestamp;temperature;humidity
19359;DHT22;9815;52.334;20.890;2022-07-04T00:01:54;18.40;99.90
19359;DHT22;9815;52.334;20.890;2022-07-04T00:04:22;18.40;99.90
19359;DHT22;9815;52.334;20.890;2022-07-04T00:06:51;18.40;99.90
19359;DHT22;9815;52.334;20.890;2022-07-04T00:09:19;18.40;99.90
19359;DHT22;9815;52.334;20.890;2022-07-04T00:11:47;18.40;99.90
19359;DHT22;9815;52.334;20.890;2022-07-04T00:14:17;18.30;99.90
19359;DHT22;9815;52.334;20.890;2022-07-04T00:16:45;18.30;99.90
19359;DHT22;9815;52.334;20.890;2022-07-04T00:19:13;18.20;99.90
19359;DHT22;9815;52.334;20.890;2022-07-04T00:21:41;18.20;99.90
19359;DHT22;9815;52.334;20.890;2022-07-04T00:24:09;18.20;99.90
19359;DHT22;9815;52.334;20.890;2022-07-04T00:26:37;18.20;99.90
19359;DHT22;9815;52.334;20.890;2022-07-04T00:29:07;18.10;99.90
19359;DHT22;9815;52.334;20.890;2022-07-04T00:31:41;18.00;99.90
19359;DHT22;9815;52.334;20.890;2022-07-04T00:34:10;17.90;99.90
19359;DHT22;9815;52.334;20.890;2022-07-04T00:36:38;17.90;99.90
19359;DHT22;9815;52.334;20.890;2022-07-04T00:39:06;17.90;99.90
19359;DHT22;9815;52.334;20.890;2022-07-04T00:41:34;17.90;99.90
19359;DHT22;9815;52.334;20.890;2022-07-04T00:44:04;17.90;99.90
19359;DHT22;9815;52.334;20.890;2022-07-04T00:46:42;17.90;99.90
19359;DHT22;9815;52.334;20.890;2022-07-04T00:49:11;17.90;99.90
19359;DHT22;9815;52.334;20.890;2022-07-04T00:51:41;17.90;99.90
19359;DHT22;9815;52.334;20.890;2022-07-04T00:54:11;17.90;99.90
19359;DHT22;9815;52.334;20.890;2022-07-04T00:56:41;17.90;99.90
19359;DHT22;9815;52.334;20.890;2022-07-04T00:59:10;17.90;99.90
19359;DHT22;9815;52.334;20.890;2022-07-04T01:01:40;17.90;99.90
19359;DHT22;9815;52.334;20.890;2022-07-04T01:04:08;17.90;99.90
19359;DHT22;9815;52.334;20.890;2022-07-04T01:06:37;17.90;99.90
19359;DHT22;9815;52.334;20.890;2022-07-04T01:09:06;17.70;99.90
19359;DHT22;9815;52.334;20.890;2022-07-04T01:11:34;17.70;99.90
19359;DHT22;9815;52.334;20.890;2022-07-04T01:14:02;17.70;99.90
19359;DHT22;9815;52.334;20.890;2022-07-04T01:16:33;17.70;99.90
19359;DHT22;9815;52.334;20.890;2022-07-04T01:19:03;17.70;99.90
19359;DHT22;9815;52.334;20.890;2022-07-04T01:21:32;17.70;99.90
19359;DHT22;9815;52.334;20.890;2022-07-04T01:24:01;17.70;99.90
19359;DHT22;9815;52.334;20.890;2022-07-04T01:26:29;17.70;99.90
19359;DHT22;9815;52.334;20.890;2022-07-04T01:28:58;17.60;99.90
19359;DHT22;9815;52.334;20.890;2022-07-04T01:31:26;17.60;99.90
19359;DHT22;9815;52.334;20.890;2022-07-04T01:33:54;17.60;99.90
19359;DHT22;9815;52.334;20.890;2022-07-04T01:36:22;17.60;99.90
19359;DHT22;9815;52.334;20.890;2022-07-04T01:38:52;17.60;99.90
19359;DHT22;9815;52.334;20.890;2022-07-04T01:41:21;17.60;99.90
19359;DHT22;9815;52.334;20.890;2022-07-04T01:43:49;17.60;99.90
19359;DHT22;9815;52.334;20.890;2022-07-04T01:46:17;17.60;99.90
19359;DHT22;9815;52.334;20.890;2022-07-04T01:48:45;17.60;99.90
19359;DHT22;9815;52.334;20.890;2022-07-04T01:51:13;17.60;99.90
19359;DHT22;9815;52.334;20.890;2022-07-04T01:53:42;17.60;99.90
19359;DHT22;9815;52.334;20.890;2022-07-04T01:56:11;17.60;99.90
19359;DHT22;9815;52.334;20.890;2022-07-04T01:58:39;17.60;99.90
19359;DHT22;9815;52.334;20.890;2022-07-04T02:01:07;17.60;99.90
19359;DHT22;9815;52.334;20.890;2022-07-04T02:03:53;17.60;99.90
19359;DHT22;9815;52.334;20.890;2022-07-04T02:06:21;17.50;99.90
19359;DHT22;9815;52.334;20.890;2022-07-04T02:08:49;17.50;99.90
19359;DHT22;9815;52.334;20.890;2022-07-04T02:11:37;17.50;99.90
19359;DHT22;9815;52.334;20.890;2022-07-04T02:14:23;17.50;99.90
19359;DHT22;9815;52.334;20.890;2022-07-04T02:16:51;17.40;99.90
19359;DHT22;9815;52.334;20.890;2022-07-04T02:19:20;17.40;99.90
19359;DHT22;9815;52.334;20.890;2022-07-04T02:21:48;17.40;99.90
19359;DHT22;9815;52.334;20.890;2022-07-04T02:24:16;17.40;99.90
19359;DHT22;9815;52.334;20.890;2022-07-04T02:26:46;17.40;99.90
19359;DHT22;9815;52.334;20.890;2022-07-04T02:29:14;17.30;99.90
19359;DHT22;9815;52.334;20.890;2022-07-04T02:31:42;17.30;99.90
19359;DHT22;9815;52.334;20.890;2022-07-04T02:34:11;17.20;99.90
19359;DHT22;9815;52.334;20.890;2022-07-04T02:36:39;17.20;99.90
19359;DHT22;9815;52.334;20.890;2022-07-04T02:39:07;17.10;99.90
19359;DHT22;9815;52.334;20.890;2022-07-04T02:41:35;17.10;99.90
19359;DHT22;9815;52.334;20.890;2022-07-04T02:44:05;17.10;99.90
19359;DHT22;9815;52.334;20.890;2022-07-04T02:46:33;17.10;99.90
19359;DHT22;9815;52.334;20.890;2022-07-04T02:49:02;17.10;99.90
19359;DHT22;9815;52.334;20.890;2022-07-04T02:51:30;17.10;99.90
19359;DHT22;9815;52.334;20.890;2022-07-04T02:53:59;17.20;99.90
19359;DHT22;9815;52.334;20.890;2022-07-04T02:56:27;17.20;99.90
19359;DHT22;9815;52.334;20.890;2022-07-04T02:58:56;17.20;99.90
19359;DHT22;9815;52.334;20.890;2022-07-04T03:01:25;17.30;99.90
19359;DHT22;9815;52.334;20.890;2022-07-04T03:03:53;17.30;99.90
19359;DHT22;9815;52.334;20.890;2022-07-04T03:06:22;17.30;99.90
19359;DHT22;9815;52.334;20.890;2022-07-04T03:08:50;17.30;99.90
19359;DHT22;9815;52.334;20.890;2022-07-04T03:11:19;17.30;99.90
19359;DHT22;9815;52.334;20.890;2022-07-04T03:13:47;17.30;99.90
19359;DHT22;9815;52.334;20.890;2022-07-04T03:16:15;17.30;99.90
19359;DHT22;9815;52.334;20.890;2022-07-04T03:18:45;17.40;99.90
19359;DHT22;9815;52.334;20.890;2022-07-04T03:21:13;17.40;99.90
19359;DHT22;9815;52.334;20.890;2022-07-04T03:23:41;17.50;99.90
19359;DHT22;9815;52.334;20.890;2022-07-04T03:26:24;17.50;99.90
19359;DHT22;9815;52.334;20.890;2022-07-04T03:28:53;17.50;99.90
19359;DHT22;9815;52.334;20.890;2022-07-04T03:31:21;17.50;99.90
19359;DHT22;9815;52.334;20.890;2022-07-04T03:33:52;17.50;99.90
19359;DHT22;9815;52.334;20.890;2022-07-04T03:36:20;17.60;99.90
19359;DHT22;9815;52.334;20.890;2022-07-04T03:38:49;17.60;99.90
19359;DHT22;9815;52.334;20.890;2022-07-04T03:41:17;17.60;99.90
19359;DHT22;9815;52.334;20.890;2022-07-04T03:43:45;17.60;99.90
19359;DHT22;9815;52.334;20.890;2022-07-04T03:46:13;17.60;99.90
19359;DHT22;9815;52.334;20.890;2022-07-04T03:48:41;17.70;99.90
19359;DHT22;9815;52.334;20.890;2022-07-04T03:51:12;17.70;99.90
19359;DHT22;9815;52.334;20.890;2022-07-04T03:53:41;17.80;99.90
19359;DHT22;9815;52.334;20.890;2022-07-04T03:56:09;17.80;99.90
19359;DHT22;9815;52.334;20.890;2022-07-04T03:58:37;17.90;99.90
19359;DHT22;9815;52.334;20.890;2022-07-04T04:01:05;18.00;99.90
19359;DHT22;9815;52.334;20.890;2022-07-04T04:03:34;18.00;99.90
19359;DHT22;9815;52.334;20.890;2022-07-04T04:06:21;18.10;99.90
19359;DHT22;9815;52.334;20.890;2022-07-04T04:08:49;18.10;99.90
19359;DHT22;9815;52.334;20.890;2022-07-04T04:11:17;18.20;99.90
19359;DHT22;9815;52.334;20.890;2022-07-04T04:13:46;18.30;99.90
19359;DHT22;9815;52.334;20.890;2022-07-04T04:16:14;18.40;99.90
19359;DHT22;9815;52.334;20.890;2022-07-04T04:18:42;18.40;99.90
19359;DHT22;9815;52.334;20.890;2022-07-04T04:21:10;18.40;99.90
19359;DHT22;9815;52.334;20.890;2022-07-04T04:23:40;18.50;99.90
19359;DHT22;9815;52.334;20.890;2022-07-04T04:26:08;18.60;99.90
19359;DHT22;9815;52.334;20.890;2022-07-04T04:28:36;18.70;99.90
19359;DHT22;9815;52.334;20.890;2022-07-04T04:31:04;18.80;99.90
19359;DHT22;9815;52.334;20.890;2022-07-04T04:33:34;18.80;99.90
19359;DHT22;9815;52.334;20.890;2022-07-04T04:36:03;19.00;99.90
19359;DHT22;9815;52.334;20.890;2022-07-04T04:38:31;19.10;99.90
19359;DHT22;9815;52.334;20.890;2022-07-04T04:41:01;19.20;99.90
19359;DHT22;9815;52.334;20.890;2022-07-04T04:43:29;19.30;99.90
19359;DHT22;9815;52.334;20.890;2022-07-04T04:45:57;19.40;99.90
19359;DHT22;9815;52.334;20.890;2022-07-04T04:48:26;19.50;99.90
19359;DHT22;9815;52.334;20.890;2022-07-04T04:50:54;19.60;99.90
19359;DHT22;9815;52.334;20.890;2022-07-04T04:53:22;19.70;99.90
19359;DHT22;9815;52.334;20.890;2022-07-04T04:55:52;19.70;99.90
19359;DHT22;9815;52.334;20.890;2022-07-04T04:58:22;19.80;99.90
19359;DHT22;9815;52.334;20.890;2022-07-04T05:00:51;19.80;99.90
19359;DHT22;9815;52.334;20.890;2022-07-04T05:03:39;19.90;99.90
19359;DHT22;9815;52.334;20.890;2022-07-04T05:06:08;20.00;99.90
19359;DHT22;9815;52.334;20.890;2022-07-04T05:08:36;20.00;99.90
19359;DHT22;9815;52.334;20.890;2022-07-04T05:11:04;20.10;99.90
19359;DHT22;9815;52.334;20.890;2022-07-04T05:13:34;20.10;99.90
19359;DHT22;9815;52.334;20.890;2022-07-04T05:16:03;20.20;99.90
19359;DHT22;9815;52.334;20.890;2022-07-04T05:18:31;20.20;99.90
19359;DHT22;9815;52.334;20.890;2022-07-04T05:21:00;20.30;99.90
19359;DHT22;9815;52.334;20.890;2022-07-04T05:23:28;20.30;99.90
19359;DHT22;9815;52.334;20.890;2022-07-04T05:25:56;20.40;99.90
19359;DHT22;9815;52.334;20.890;2022-07-04T05:28:24;20.40;99.90
19359;DHT22;9815;52.334;20.890;2022-07-04T05:30:54;20.50;99.90
19359;DHT22;9815;52.334;20.890;2022-07-04T05:33:22;20.60;99.90
19359;DHT22;9815;52.334;20.890;2022-07-04T05:35:50;20.60;99.90
19359;DHT22;9815;52.334;20.890;2022-07-04T05:38:18;20.70;99.90
19359;DHT22;9815;52.334;20.890;2022-07-04T05:40:47;20.80;99.90
19359;DHT22;9815;52.334;20.890;2022-07-04T05:43:15;20.90;99.90
19359;DHT22;9815;52.334;20.890;2022-07-04T05:45:44;20.90;99.90
19359;DHT22;9815;52.334;20.890;2022-07-04T05:48:16;21.00;99.90
19359;DHT22;9815;52.334;20.890;2022-07-04T05:50:45;21.00;99.90
19359;DHT22;9815;52.334;20.890;2022-07-04T05:53:13;21.10;99.90
19359;DHT22;9815;52.334;20.890;2022-07-04T05:55:41;21.20;99.90
19359;DHT22;9815;52.334;20.890;2022-07-04T05:58:09;21.20;99.90
19359;DHT22;9815;52.334;20.890;2022-07-04T06:00:38;21.30;99.90
19359;DHT22;9815;52.334;20.890;2022-07-04T06:03:07;21.40;99.90
19359;DHT22;9815;52.334;20.890;2022-07-04T06:05:36;21.50;99.90
19359;DHT22;9815;52.334;20.890;2022-07-04T06:08:49;21.50;99.90
19359;DHT22;9815;52.334;20.890;2022-07-04T06:11:13;21.50;99.90
19359;DHT22;9815;52.334;20.890;2022-07-04T06:17:26;21.60;99.60
19359;DHT22;9815;52.334;20.890;2022-07-04T06:20:04;21.80;98.80
19359;DHT22;9815;52.334;20.890;2022-07-04T06:22:43;21.80;99.60
19359;DHT22;9815;52.334;20.890;2022-07-04T06:25:28;21.90;97.60
19359;DHT22;9815;52.334;20.890;2022-07-04T06:27:57;22.10;96.20
19359;DHT22;9815;52.334;20.890;2022-07-04T06:30:26;22.10;95.20
19359;DHT22;9815;52.334;20.890;2022-07-04T06:32:58;22.10;95.20
19359;DHT22;9815;52.334;20.890;2022-07-04T06:35:28;22.20;91.60
19359;DHT22;9815;52.334;20.890;2022-07-04T06:38:14;22.20;92.10
19359;DHT22;9815;52.334;20.890;2022-07-04T06:40:43;22.30;93.20
19359;DHT22;9815;52.334;20.890;2022-07-04T06:43:20;22.30;93.30
19359;DHT22;9815;52.334;20.890;2022-07-04T06:45:52;22.40;93.20
19359;DHT22;9815;52.334;20.890;2022-07-04T06:48:20;22.40;93.00
19359;DHT22;9815;52.334;20.890;2022-07-04T06:50:49;22.40;92.00
19359;DHT22;9815;52.334;20.890;2022-07-04T06:53:18;22.30;91.30
19359;DHT22;9815;52.334;20.890;2022-07-04T06:55:47;22.30;92.10
19359;DHT22;9815;52.334;20.890;2022-07-04T06:58:16;22.50;93.40
19359;DHT22;9815;52.334;20.890;2022-07-04T07:00:45;22.50;91.60
19359;DHT22;9815;52.334;20.890;2022-07-04T07:03:14;22.60;92.40
19359;DHT22;9815;52.334;20.890;2022-07-04T07:05:43;22.60;91.90
19359;DHT22;9815;52.334;20.890;2022-07-04T07:08:29;22.80;90.40
19359;DHT22;9815;52.334;20.890;2022-07-04T07:10:58;22.90;83.60
19359;DHT22;9815;52.334;20.890;2022-07-04T07:13:40;23.10;84.90
19359;DHT22;9815;52.334;20.890;2022-07-04T07:16:10;23.20;86.00
19359;DHT22;9815;52.334;20.890;2022-07-04T07:18:39;23.30;83.80
19359;DHT22;9815;52.334;20.890;2022-07-04T07:21:07;23.40;83.70
19359;DHT22;9815;52.334;20.890;2022-07-04T07:23:39;23.40;82.30
19359;DHT22;9815;52.334;20.890;2022-07-04T07:26:08;23.50;78.60
19359;DHT22;9815;52.334;20.890;2022-07-04T07:28:37;23.30;80.00
19359;DHT22;9815;52.334;20.890;2022-07-04T07:31:05;23.40;82.30
19359;DHT22;9815;52.334;20.890;2022-07-04T07:33:33;23.50;78.60
19359;DHT22;9815;52.334;20.890;2022-07-04T07:36:02;23.70;71.30
19359;DHT22;9815;52.334;20.890;2022-07-04T07:38:33;23.90;72.70
19359;DHT22;9815;52.334;20.890;2022-07-04T07:41:07;24.60;71.10
19359;DHT22;9815;52.334;20.890;2022-07-04T07:43:36;25.70;64.40
19359;DHT22;9815;52.334;20.890;2022-07-04T07:46:07;26.70;58.10
19359;DHT22;9815;52.334;20.890;2022-07-04T07:48:36;27.30;55.70
19359;DHT22;9815;52.334;20.890;2022-07-04T07:51:04;27.60;56.50
19359;DHT22;9815;52.334;20.890;2022-07-04T07:53:33;27.90;52.20
19359;DHT22;9815;52.334;20.890;2022-07-04T07:56:23;28.00;52.80
19359;DHT22;9815;52.334;20.890;2022-07-04T07:58:51;28.30;51.40
19359;DHT22;9815;52.334;20.890;2022-07-04T08:01:20;28.30;51.00
19359;DHT22;9815;52.334;20.890;2022-07-04T08:03:49;27.60;52.50
19359;DHT22;9815;52.334;20.890;2022-07-04T08:06:39;27.50;53.50
19359;DHT22;9815;52.334;20.890;2022-07-04T08:09:28;28.40;49.80
19359;DHT22;9815;52.334;20.890;2022-07-04T08:11:58;28.90;49.60
19359;DHT22;9815;52.334;20.890;2022-07-04T08:14:27;29.20;48.40
19359;DHT22;9815;52.334;20.890;2022-07-04T08:16:56;29.20;48.20
19359;DHT22;9815;52.334;20.890;2022-07-04T08:19:25;29.40;48.60
19359;DHT22;9815;52.334;20.890;2022-07-04T08:21:54;29.50;47.70
19359;DHT22;9815;52.334;20.890;2022-07-04T08:24:43;29.30;46.80
19359;DHT22;9815;52.334;20.890;2022-07-04T08:27:14;29.10;47.40
19359;DHT22;9815;52.334;20.890;2022-07-04T08:29:42;29.10;46.10
19359;DHT22;9815;52.334;20.890;2022-07-04T08:32:11;28.50;48.60
19359;DHT22;9815;52.334;20.890;2022-07-04T08:34:39;28.40;50.40
19359;DHT22;9815;52.334;20.890;2022-07-04T08:37:10;28.50;51.50
19359;DHT22;9815;52.334;20.890;2022-07-04T08:39:38;28.40;50.10
19359;DHT22;9815;52.334;20.890;2022-07-04T08:42:12;28.40;46.10
19359;DHT22;9815;52.334;20.890;2022-07-04T08:44:46;28.30;45.20
19359;DHT22;9815;52.334;20.890;2022-07-04T08:47:17;27.40;47.10
19359;DHT22;9815;52.334;20.890;2022-07-04T08:49:52;27.50;51.20
19359;DHT22;9815;52.334;20.890;2022-07-04T08:52:30;27.70;49.30
19359;DHT22;9815;52.334;20.890;2022-07-04T08:55:02;28.10;48.10
19359;DHT22;9815;52.334;20.890;2022-07-04T08:57:49;28.50;46.60
19359;DHT22;9815;52.334;20.890;2022-07-04T09:00:38;28.30;47.40
19359;DHT22;9815;52.334;20.890;2022-07-04T09:03:07;27.10;50.60
19359;DHT22;9815;52.334;20.890;2022-07-04T09:05:36;26.50;53.30
19359;DHT22;9815;52.334;20.890;2022-07-04T09:08:06;26.20;54.20
19359;DHT22;9815;52.334;20.890;2022-07-04T09:10:35;25.80;56.60
19359;DHT22;9815;52.334;20.890;2022-07-04T09:13:05;25.70;56.70
19359;DHT22;9815;52.334;20.890;2022-07-04T09:15:41;25.70;58.70
19359;DHT22;9815;52.334;20.890;2022-07-04T09:18:26;26.40;54.70
19359;DHT22;9815;52.334;20.890;2022-07-04T09:20:56;27.00;53.20
19359;DHT22;9815;52.334;20.890;2022-07-04T09:23:27;28.10;51.90
19359;DHT22;9815;52.334;20.890;2022-07-04T09:26:11;28.80;49.30
19359;DHT22;9815;52.334;20.890;2022-07-04T09:28:43;29.70;46.40
19359;DHT22;9815;52.334;20.890;2022-07-04T09:31:18;29.40;41.70
19359;DHT22;9815;52.334;20.890;2022-07-04T09:33:52;29.20;43.50
19359;DHT22;9815;52.334;20.890;2022-07-04T09:36:24;28.50;43.40
19359;DHT22;9815;52.334;20.890;2022-07-04T09:39:07;28.40;44.30
19359;DHT22;9815;52.334;20.890;2022-07-04T09:41:54;28.70;44.10
19359;DHT22;9815;52.334;20.890;2022-07-04T09:44:24;29.30;41.90
19359;DHT22;9815;52.334;20.890;2022-07-04T09:46:54;29.70;44.40
19359;DHT22;9815;52.334;20.890;2022-07-04T09:49:23;30.40;41.20
19359;DHT22;9815;52.334;20.890;2022-07-04T09:51:52;30.70;40.20
19359;DHT22;9815;52.334;20.890;2022-07-04T09:54:23;30.80;40.30
19359;DHT22;9815;52.334;20.890;2022-07-04T09:56:55;29.50;41.20
19359;DHT22;9815;52.334;20.890;2022-07-04T09:59:24;28.20;42.50
19359;DHT22;9815;52.334;20.890;2022-07-04T10:02:08;27.70;46.80
19359;DHT22;9815;52.334;20.890;2022-07-04T10:04:44;27.60;46.70
19359;DHT22;9815;52.334;20.890;2022-07-04T10:07:29;27.20;47.60
19359;DHT22;9815;52.334;20.890;2022-07-04T10:09:58;27.30;48.30
19359;DHT22;9815;52.334;20.890;2022-07-04T10:12:27;27.50;47.60
19359;DHT22;9815;52.334;20.890;2022-07-04T10:14:55;27.60;48.10
19359;DHT22;9815;52.334;20.890;2022-07-04T10:17:25;27.50;48.20
19359;DHT22;9815;52.334;20.890;2022-07-04T10:19:54;27.70;46.50
19359;DHT22;9815;52.334;20.890;2022-07-04T10:22:23;27.80;49.20
19359;DHT22;9815;52.334;20.890;2022-07-04T10:24:51;27.40;48.50
19359;DHT22;9815;52.334;20.890;2022-07-04T10:27:20;27.50;49.50
19359;DHT22;9815;52.334;20.890;2022-07-04T10:29:48;27.90;48.50
19359;DHT22;9815;52.334;20.890;2022-07-04T10:32:17;28.50;46.40
19359;DHT22;9815;52.334;20.890;2022-07-04T10:34:47;28.90;44.20
19359;DHT22;9815;52.334;20.890;2022-07-04T10:37:16;29.10;44.90
19359;DHT22;9815;52.334;20.890;2022-07-04T10:39:44;29.10;44.90
19359;DHT22;9815;52.334;20.890;2022-07-04T10:42:22;29.20;43.70
19359;DHT22;9815;52.334;20.890;2022-07-04T10:44:51;29.30;44.70
19359;DHT22;9815;52.334;20.890;2022-07-04T10:47:23;29.00;47.30
19359;DHT22;9815;52.334;20.890;2022-07-04T10:49:57;28.80;45.20
19359;DHT22;9815;52.334;20.890;2022-07-04T10:52:25;28.90;44.40
19359;DHT22;9815;52.334;20.890;2022-07-04T10:54:53;28.60;45.80
19359;DHT22;9815;52.334;20.890;2022-07-04T10:57:22;28.90;44.20
19359;DHT22;9815;52.334;20.890;2022-07-04T11:00:05;29.00;45.40
19359;DHT22;9815;52.334;20.890;2022-07-04T11:02:35;28.80;44.20
19359;DHT22;9815;52.334;20.890;2022-07-04T11:05:06;28.80;44.30
19359;DHT22;9815;52.334;20.890;2022-07-04T11:07:58;28.80;44.60
19359;DHT22;9815;52.334;20.890;2022-07-04T11:10:27;28.30;45.10
19359;DHT22;9815;52.334;20.890;2022-07-04T11:13:21;28.20;46.00
19359;DHT22;9815;52.334;20.890;2022-07-04T11:16:03;28.30;45.30
19359;DHT22;9815;52.334;20.890;2022-07-04T11:18:42;28.30;45.10
19359;DHT22;9815;52.334;20.890;2022-07-04T11:21:20;28.20;45.50
19359;DHT22;9815;52.334;20.890;2022-07-04T11:23:50;28.10;45.20
19359;DHT22;9815;52.334;20.890;2022-07-04T11:26:20;27.90;46.70
19359;DHT22;9815;52.334;20.890;2022-07-04T11:28:50;27.90;46.70
19359;DHT22;9815;52.334;20.890;2022-07-04T11:31:18;28.10;46.70
19359;DHT22;9815;52.334;20.890;2022-07-04T11:33:47;28.30;46.00
19359;DHT22;9815;52.334;20.890;2022-07-04T11:36:17;28.40;44.70
19359;DHT22;9815;52.334;20.890;2022-07-04T11:38:50;28.30;47.10
19359;DHT22;9815;52.334;20.890;2022-07-04T11:41:22;28.40;45.90
19359;DHT22;9815;52.334;20.890;2022-07-04T11:44:10;28.40;46.90
19359;DHT22;9815;52.334;20.890;2022-07-04T11:47:19;28.40;46.30
19359;DHT22;9815;52.334;20.890;2022-07-04T11:49:49;28.40;45.60
19359;DHT22;9815;52.334;20.890;2022-07-04T11:52:21;28.50;44.90
19359;DHT22;9815;52.334;20.890;2022-07-04T11:55:11;28.50;46.50
19359;DHT22;9815;52.334;20.890;2022-07-04T11:57:42;28.80;45.30
19359;DHT22;9815;52.334;20.890;2022-07-04T12:00:12;28.90;45.00
19359;DHT22;9815;52.334;20.890;2022-07-04T12:02:44;29.10;43.80
19359;DHT22;9815;52.334;20.890;2022-07-04T12:05:13;29.00;43.40
19359;DHT22;9815;52.334;20.890;2022-07-04T12:07:44;28.90;43.50
19359;DHT22;9815;52.334;20.890;2022-07-04T12:10:32;28.90;42.80
19359;DHT22;9815;52.334;20.890;2022-07-04T12:13:02;28.90;42.20
19359;DHT22;9815;52.334;20.890;2022-07-04T12:15:37;28.90;44.60
19359;DHT22;9815;52.334;20.890;2022-07-04T12:18:15;28.70;44.00
19359;DHT22;9815;52.334;20.890;2022-07-04T12:20:44;28.30;45.60
19359;DHT22;9815;52.334;20.890;2022-07-04T12:23:14;28.20;45.10
19359;DHT22;9815;52.334;20.890;2022-07-04T12:25:45;28.20;44.60
19359;DHT22;9815;52.334;20.890;2022-07-04T12:28:15;28.30;46.60
19359;DHT22;9815;52.334;20.890;2022-07-04T12:30:49;28.30;46.30
19359;DHT22;9815;52.334;20.890;2022-07-04T12:33:20;28.30;45.80
19359;DHT22;9815;52.334;20.890;2022-07-04T12:35:51;28.50;44.90
19359;DHT22;9815;52.334;20.890;2022-07-04T12:38:25;28.60;46.10
19359;DHT22;9815;52.334;20.890;2022-07-04T12:41:01;28.40;45.00
19359;DHT22;9815;52.334;20.890;2022-07-04T12:43:44;28.20;44.90
19359;DHT22;9815;52.334;20.890;2022-07-04T12:46:15;28.00;46.10
19359;DHT22;9815;52.334;20.890;2022-07-04T12:48:54;28.00;46.40
19359;DHT22;9815;52.334;20.890;2022-07-04T12:51:25;28.10;44.60
19359;DHT22;9815;52.334;20.890;2022-07-04T12:53:57;28.00;45.60
19359;DHT22;9815;52.334;20.890;2022-07-04T12:56:29;28.00;45.50
19359;DHT22;9815;52.334;20.890;2022-07-04T12:59:00;28.40;46.10
19359;DHT22;9815;52.334;20.890;2022-07-04T13:01:28;28.60;45.80
19359;DHT22;9815;52.334;20.890;2022-07-04T13:03:57;28.70;46.70
19359;DHT22;9815;52.334;20.890;2022-07-04T13:06:25;29.30;45.10
19359;DHT22;9815;52.334;20.890;2022-07-04T13:08:56;29.80;44.00
19359;DHT22;9815;52.334;20.890;2022-07-04T13:11:25;30.40;40.60
19359;DHT22;9815;52.334;20.890;2022-07-04T13:14:16;30.80;41.20
19359;DHT22;9815;52.334;20.890;2022-07-04T13:16:44;31.30;40.40
19359;DHT22;9815;52.334;20.890;2022-07-04T13:19:13;31.60;40.30
19359;DHT22;9815;52.334;20.890;2022-07-04T13:21:44;31.70;39.40
19359;DHT22;9815;52.334;20.890;2022-07-04T13:24:14;31.50;39.60
19359;DHT22;9815;52.334;20.890;2022-07-04T13:26:42;31.20;38.10
19359;DHT22;9815;52.334;20.890;2022-07-04T13:29:10;31.40;38.40
19359;DHT22;9815;52.334;20.890;2022-07-04T13:31:39;31.20;38.10
19359;DHT22;9815;52.334;20.890;2022-07-04T13:34:07;30.50;40.60
19359;DHT22;9815;52.334;20.890;2022-07-04T13:36:36;31.00;38.90
19359;DHT22;9815;52.334;20.890;2022-07-04T13:39:04;31.40;36.00
19359;DHT22;9815;52.334;20.890;2022-07-04T13:41:34;31.70;39.00
19359;DHT22;9815;52.334;20.890;2022-07-04T13:44:04;31.90;38.20
19359;DHT22;9815;52.334;20.890;2022-07-04T13:46:33;31.60;37.40
19359;DHT22;9815;52.334;20.890;2022-07-04T13:49:03;30.90;37.10
19359;DHT22;9815;52.334;20.890;2022-07-04T13:51:39;30.60;37.70
19359;DHT22;9815;52.334;20.890;2022-07-04T13:54:09;30.40;38.60
19359;DHT22;9815;52.334;20.890;2022-07-04T13:56:39;30.80;37.80
19359;DHT22;9815;52.334;20.890;2022-07-04T13:59:08;31.30;38.80
19359;DHT22;9815;52.334;20.890;2022-07-04T14:01:37;31.40;38.10
19359;DHT22;9815;52.334;20.890;2022-07-04T14:04:05;31.60;36.60
19359;DHT22;9815;52.334;20.890;2022-07-04T14:06:33;31.00;38.10
19359;DHT22;9815;52.334;20.890;2022-07-04T14:09:02;30.80;39.80
19359;DHT22;9815;52.334;20.890;2022-07-04T14:11:30;30.40;40.70
19359;DHT22;9815;52.334;20.890;2022-07-04T14:13:59;30.10;39.20
19359;DHT22;9815;52.334;20.890;2022-07-04T14:16:28;30.10;40.30
19359;DHT22;9815;52.334;20.890;2022-07-04T14:18:56;29.90;41.90
19359;DHT22;9815;52.334;20.890;2022-07-04T14:21:25;29.60;42.70
19359;DHT22;9815;52.334;20.890;2022-07-04T14:23:53;29.30;42.00
19359;DHT22;9815;52.334;20.890;2022-07-04T14:26:22;29.50;42.60
19359;DHT22;9815;52.334;20.890;2022-07-04T14:28:51;30.10;41.00
19359;DHT22;9815;52.334;20.890;2022-07-04T14:31:22;30.60;40.10
19359;DHT22;9815;52.334;20.890;2022-07-04T14:33:51;31.20;40.70
19359;DHT22;9815;52.334;20.890;2022-07-04T14:36:20;31.30;37.50
19359;DHT22;9815;52.334;20.890;2022-07-04T14:38:48;31.10;38.60
19359;DHT22;9815;52.334;20.890;2022-07-04T14:41:16;31.10;38.90
19359;DHT22;9815;52.334;20.890;2022-07-04T14:43:44;31.10;38.00
19359;DHT22;9815;52.334;20.890;2022-07-04T14:46:12;30.60;39.20
19359;DHT22;9815;52.334;20.890;2022-07-04T14:48:42;30.30;41.70
19359;DHT22;9815;52.334;20.890;2022-07-04T14:51:10;30.30;41.50
19359;DHT22;9815;52.334;20.890;2022-07-04T14:53:38;29.90;41.20
19359;DHT22;9815;52.334;20.890;2022-07-04T14:56:07;29.50;41.60
19359;DHT22;9815;52.334;20.890;2022-07-04T14:58:35;29.00;44.10
19359;DHT22;9815;52.334;20.890;2022-07-04T15:01:03;28.70;45.80
19359;DHT22;9815;52.334;20.890;2022-07-04T15:03:32;28.40;46.30
19359;DHT22;9815;52.334;20.890;2022-07-04T15:06:01;28.20;46.30
19359;DHT22;9815;52.334;20.890;2022-07-04T15:08:30;28.10;46.30
19359;DHT22;9815;52.334;20.890;2022-07-04T15:10:58;28.00;45.70
19359;DHT22;9815;52.334;20.890;2022-07-04T15:13:27;27.90;46.10
19359;DHT22;9815;52.334;20.890;2022-07-04T15:15:56;27.90;47.80
19359;DHT22;9815;52.334;20.890;2022-07-04T15:18:44;27.80;46.20
19359;DHT22;9815;52.334;20.890;2022-07-04T15:21:14;28.00;47.20
19359;DHT22;9815;52.334;20.890;2022-07-04T15:23:59;28.50;45.80
19359;DHT22;9815;52.334;20.890;2022-07-04T15:26:43;29.10;43.90
19359;DHT22;9815;52.334;20.890;2022-07-04T15:29:12;29.80;42.40
19359;DHT22;9815;52.334;20.890;2022-07-04T15:31:41;30.40;42.00
19359;DHT22;9815;52.334;20.890;2022-07-04T15:34:10;30.80;40.00
19359;DHT22;9815;52.334;20.890;2022-07-04T15:36:41;30.80;40.30
19359;DHT22;9815;52.334;20.890;2022-07-04T15:39:13;30.70;42.10
19359;DHT22;9815;52.334;20.890;2022-07-04T15:41:42;30.30;41.60
19359;DHT22;9815;52.334;20.890;2022-07-04T15:44:12;30.00;42.80
19359;DHT22;9815;52.334;20.890;2022-07-04T15:46:43;30.00;42.70
19359;DHT22;9815;52.334;20.890;2022-07-04T15:49:28;30.10;42.30
19359;DHT22;9815;52.334;20.890;2022-07-04T15:51:58;30.20;40.70
19359;DHT22;9815;52.334;20.890;2022-07-04T15:54:27;30.30;42.30
19359;DHT22;9815;52.334;20.890;2022-07-04T15:56:56;30.30;41.10
19359;DHT22;9815;52.334;20.890;2022-07-04T15:59:24;30.60;41.60